createdAt,value
2023-02-14T00:02:21.515Z,53.58
2023-02-14T00:05:25.347Z,53.82
2023-02-14T00:08:28.974Z,53.16
2023-02-14T00:11:32.957Z,52.50
2023-02-14T00:14:55.719Z,52.60
2023-02-14T00:18:00.961Z,52.24
2023-02-14T00:21:04.782Z,51.97
2023-02-14T00:24:11.710Z,51.92
2023-02-14T00:27:15.334Z,51.95
2023-02-14T00:30:20.632Z,52.46
2023-02-14T00:33:24.594Z,51.91
2023-02-14T00:36:28.848Z,52.03
2023-02-14T00:39:32.581Z,52.04
2023-02-14T00:42:36.572Z,52.40
2023-02-14T00:45:41.624Z,52.08
2023-02-14T00:48:45.339Z,51.42
2023-02-14T00:51:48.937Z,52.45
2023-02-14T00:54:52.483Z,51.22
2023-02-14T00:57:56.192Z,51.16
2023-02-14T01:01:02.072Z,50.71
2023-02-14T01:04:06.357Z,50.29
2023-02-14T01:07:10.149Z,50.74
2023-02-14T01:10:14.567Z,50.67
2023-02-14T01:13:19.017Z,50.22
2023-02-14T01:16:26.014Z,49.88
2023-02-14T01:19:31.736Z,49.41
2023-02-14T01:22:37.897Z,49.85
2023-02-14T01:25:41.700Z,49.93
2023-02-14T01:28:47.474Z,49.64
2023-02-14T01:31:52.608Z,49.70
2023-02-14T01:34:56.348Z,49.89
2023-02-14T01:37:59.975Z,50.82
2023-02-14T01:41:03.651Z,50.54
2023-02-14T01:44:09.280Z,50.78
2023-02-14T01:47:15.603Z,50.82
2023-02-14T01:50:24.233Z,50.78
2023-02-14T01:53:30.225Z,50.55
2023-02-14T01:56:39.595Z,50.52
2023-02-14T01:59:48.454Z,50.18
2023-02-14T02:02:53.912Z,50.82
2023-02-14T02:06:05.115Z,51.36
2023-02-14T02:09:16.010Z,50.36
2023-02-14T02:12:19.718Z,50.17
2023-02-14T02:15:28.034Z,50.60
2023-02-14T02:18:48.188Z,50.41
2023-02-14T02:22:25.928Z,49.87
2023-02-14T02:25:49.171Z,49.89
2023-02-14T02:29:21.072Z,49.58
2023-02-14T02:33:14.336Z,49.62
2023-02-14T02:36:51.947Z,50.01
2023-02-14T02:40:12.390Z,49.54
2023-02-14T02:43:27.302Z,49.41
2023-02-14T02:46:50.138Z,49.10
2023-02-14T02:50:17.552Z,49.63
2023-02-14T02:53:29.060Z,49.35
2023-02-14T02:56:47.506Z,49.45
2023-02-14T02:59:53.948Z,50.38
2023-02-14T03:03:16.977Z,49.71
2023-02-14T03:06:20.574Z,49.64
2023-02-14T03:09:57.714Z,50.20
2023-02-14T03:13:38.344Z,50.98
2023-02-14T03:16:56.703Z,50.84
2023-02-14T03:20:13.765Z,50.29
2023-02-14T03:23:23.394Z,50.84
2023-02-14T03:26:36.933Z,51.03
2023-02-14T03:29:54.824Z,51.20
2023-02-14T03:33:04.671Z,50.70
2023-02-14T03:36:14.168Z,51.43
2023-02-14T03:39:23.414Z,51.27
2023-02-14T03:42:33.994Z,51.44
2023-02-14T03:45:44.582Z,50.56
2023-02-14T03:48:51.989Z,50.77
2023-02-14T03:52:00.313Z,51.43
2023-02-14T03:55:06.350Z,51.42
2023-02-14T03:58:18.364Z,51.51
2023-02-14T04:01:25.436Z,51.50
2023-02-14T04:04:32.445Z,51.02
2023-02-14T04:07:46.922Z,51.32
2023-02-14T04:10:51.074Z,51.41
2023-02-14T04:13:56.512Z,50.90
2023-02-14T04:17:17.242Z,50.60
2023-02-14T04:20:21.395Z,50.90
2023-02-14T04:23:25.133Z,50.91
2023-02-14T04:26:28.834Z,50.83
2023-02-14T04:29:33.980Z,50.63
2023-02-14T04:32:37.703Z,50.70
2023-02-14T04:35:41.311Z,50.66
2023-02-14T04:38:45.589Z,50.22
2023-02-14T04:41:49.174Z,50.89
2023-02-14T04:44:54.235Z,50.13
2023-02-14T04:47:57.829Z,50.57
2023-02-14T04:51:01.720Z,49.96
2023-02-14T04:54:05.613Z,49.63
2023-02-14T04:57:09.299Z,49.58
2023-02-14T05:00:16.029Z,49.74
2023-02-14T05:03:19.722Z,49.49
2023-02-14T05:06:23.308Z,50.14
2023-02-14T05:09:26.957Z,50.12
2023-02-14T05:12:30.601Z,50.78
2023-02-14T05:15:38.306Z,50.73
2023-02-14T05:18:42.389Z,50.76
2023-02-14T05:21:46.187Z,50.46
2023-02-14T05:24:49.861Z,50.58
2023-02-14T05:27:53.504Z,50.22
2023-02-14T05:30:59.194Z,50.70
2023-02-14T05:34:03.027Z,50.56
2023-02-14T05:37:06.674Z,51.01
2023-02-14T05:40:13.726Z,50.98
2023-02-14T05:43:17.397Z,51.31
2023-02-14T05:46:22.448Z,50.69
2023-02-14T05:49:25.980Z,51.22
2023-02-14T05:52:29.838Z,51.19
2023-02-14T05:55:33.475Z,51.77
2023-02-14T05:58:37.405Z,51.39
2023-02-14T06:01:42.616Z,51.70
2023-02-14T06:04:46.402Z,50.88
2023-02-14T06:07:51.643Z,50.77
2023-02-14T06:10:55.455Z,50.50
2023-02-14T06:13:59.803Z,49.88
2023-02-14T06:17:05.098Z,49.23
2023-02-14T06:20:10.956Z,48.51
2023-02-14T06:23:14.864Z,48.57
2023-02-14T06:26:18.655Z,47.48
2023-02-14T06:29:22.444Z,47.30
2023-02-14T06:32:27.752Z,46.49
2023-02-14T06:35:31.424Z,46.26
2023-02-14T06:38:35.216Z,46.15
2023-02-14T06:41:38.974Z,45.72
2023-02-14T06:44:42.793Z,45.34
2023-02-14T06:47:48.333Z,45.42
2023-02-14T06:50:52.516Z,44.68
2023-02-14T06:53:56.237Z,44.91
2023-02-14T06:57:00.054Z,44.87
2023-02-14T07:00:04.503Z,44.19
2023-02-14T07:03:10.104Z,43.72
2023-02-14T07:06:13.923Z,43.82
2023-02-14T07:09:18.568Z,43.26
2023-02-14T07:12:22.413Z,43.09
2023-02-14T07:15:26.262Z,42.44
2023-02-14T07:18:31.542Z,42.47
2023-02-14T07:21:35.333Z,42.24
2023-02-14T07:24:39.123Z,42.83
2023-02-14T07:27:42.966Z,42.49
2023-02-14T07:30:46.883Z,42.15
2023-02-14T07:33:52.440Z,42.62
2023-02-14T07:36:56.263Z,41.90
2023-02-14T07:40:00.040Z,42.85
2023-02-14T07:43:03.849Z,42.60
2023-02-14T07:46:08.725Z,42.67
2023-02-14T07:49:13.972Z,41.77
2023-02-14T07:52:17.842Z,42.19
2023-02-14T07:55:21.703Z,42.30
2023-02-14T07:58:25.533Z,42.14
2023-02-14T08:01:29.420Z,41.47
2023-02-14T08:04:34.822Z,41.32
2023-02-14T08:07:38.613Z,41.02
2023-02-14T08:10:43.782Z,40.98
2023-02-14T08:13:47.572Z,41.00
2023-02-14T08:16:51.394Z,41.12
2023-02-14T08:19:56.587Z,41.16
2023-02-14T08:23:00.341Z,41.11
2023-02-14T08:26:05.096Z,41.26
2023-02-14T08:29:08.930Z,41.24
2023-02-14T08:32:12.977Z,41.36
2023-02-14T08:35:18.405Z,40.61
2023-02-14T08:38:22.604Z,40.66
2023-02-14T08:41:26.786Z,40.49
2023-02-14T08:44:30.566Z,40.74
2023-02-14T08:47:36.206Z,40.50
2023-02-14T08:50:42.266Z,40.18
2023-02-14T08:53:46.630Z,39.96
2023-02-14T08:56:50.505Z,38.92
2023-02-14T08:59:54.338Z,39.13
2023-02-14T09:02:58.203Z,39.57
2023-02-14T09:06:06.257Z,39.15
2023-02-14T09:09:10.079Z,38.57
2023-02-14T09:12:13.868Z,38.77
2023-02-14T09:15:17.853Z,38.25
2023-02-14T09:18:21.964Z,37.69
2023-02-14T09:21:29.028Z,37.23
2023-02-14T09:24:34.352Z,37.82
2023-02-14T09:27:38.132Z,37.26
2023-02-14T09:30:41.968Z,37.40
2023-02-14T09:34:04.449Z,37.58
2023-02-14T09:37:12.258Z,37.95
2023-02-14T09:40:20.698Z,38.54
2023-02-14T09:43:32.416Z,38.79
2023-02-14T09:46:44.657Z,39.06
2023-02-14T09:49:50.616Z,38.07
2023-02-14T09:52:59.330Z,37.49
2023-02-14T09:56:11.911Z,36.82
2023-02-14T09:59:21.097Z,36.52
2023-02-14T10:02:45.277Z,37.02
2023-02-14T10:05:59.208Z,36.58
2023-02-14T10:09:14.480Z,36.94
2023-02-14T10:12:24.730Z,36.99
2023-02-14T10:15:33.130Z,35.71
2023-02-14T10:18:42.361Z,35.43
2023-02-14T10:21:53.718Z,35.38
2023-02-14T10:25:03.436Z,35.11
2023-02-14T10:28:15.831Z,35.72
2023-02-14T10:31:23.365Z,35.15
2023-02-14T10:34:36.298Z,34.70
2023-02-14T10:37:52.771Z,34.52
2023-02-14T10:41:33.254Z,35.08
2023-02-14T10:44:47.358Z,35.31
2023-02-14T10:48:00.216Z,35.68
2023-02-14T10:51:08.212Z,36.35
2023-02-14T10:54:21.947Z,35.59
2023-02-14T10:57:31.917Z,35.69
2023-02-14T11:00:39.473Z,35.64
2023-02-14T11:03:54.068Z,35.91
2023-02-14T11:06:58.088Z,36.24
2023-02-14T11:10:03.097Z,36.35
2023-02-14T11:13:28.924Z,35.66
2023-02-14T11:16:35.090Z,35.12
2023-02-14T11:19:39.201Z,34.68
2023-02-14T11:22:42.969Z,34.17
2023-02-14T11:25:53.022Z,34.56
2023-02-14T11:29:00.900Z,34.78
2023-02-14T11:32:12.329Z,35.74
2023-02-14T11:35:24.561Z,35.74
2023-02-14T11:38:32.076Z,35.53
2023-02-14T11:41:54.720Z,35.85
2023-02-14T11:44:59.991Z,35.61
2023-02-14T11:48:37.272Z,35.78
2023-02-14T11:51:45.715Z,35.72
2023-02-14T11:54:50.528Z,36.04
2023-02-14T11:57:55.090Z,36.06
2023-02-14T12:01:02.261Z,36.23
2023-02-14T12:04:15.213Z,35.77
2023-02-14T12:07:23.201Z,36.67
2023-02-14T12:10:29.512Z,36.59
2023-02-14T12:13:34.592Z,36.68
2023-02-14T12:16:47.474Z,36.84
2023-02-14T12:19:56.964Z,37.19
2023-02-14T12:23:07.543Z,36.33
2023-02-14T12:26:19.343Z,37.29
2023-02-14T12:29:27.581Z,36.75
2023-02-14T12:32:34.181Z,36.52
2023-02-14T12:35:48.891Z,36.96
2023-02-14T12:39:04.278Z,37.35
2023-02-14T12:42:23.862Z,38.00
2023-02-14T12:45:52.326Z,38.28
2023-02-14T12:49:16.268Z,39.63
2023-02-14T12:53:09.329Z,39.91
2023-02-14T12:56:23.680Z,40.51
2023-02-14T12:59:36.250Z,39.97
2023-02-14T13:02:58.057Z,40.21
2023-02-14T13:06:11.882Z,40.63
2023-02-14T13:09:27.677Z,40.37
2023-02-14T13:12:38.610Z,41.16
2023-02-14T13:15:52.148Z,41.31
2023-02-14T13:19:03.811Z,41.65
2023-02-14T13:22:14.370Z,40.93
2023-02-14T13:25:31.580Z,40.49
2023-02-14T13:28:37.917Z,40.57
2023-02-14T13:31:43.111Z,40.65
2023-02-14T13:34:48.695Z,41.05
2023-02-14T13:37:56.947Z,40.42
2023-02-14T13:41:05.651Z,40.54
2023-02-14T13:44:09.836Z,41.01
2023-02-14T13:47:21.566Z,41.49
2023-02-14T13:50:25.581Z,41.86
2023-02-14T13:53:36.901Z,42.26
2023-02-14T13:56:40.886Z,42.40
2023-02-14T13:59:44.716Z,42.25
2023-02-14T14:02:53.856Z,42.44
2023-02-14T14:06:04.980Z,42.42
2023-02-14T14:09:12.315Z,42.51
2023-02-14T14:12:54.628Z,42.43
2023-02-14T14:16:27.900Z,42.82
2023-02-14T14:19:41.196Z,42.65
2023-02-14T14:22:49.391Z,43.00
2023-02-14T14:25:54.686Z,43.45
2023-02-14T14:28:58.588Z,43.46
2023-02-14T14:32:10.983Z,43.17
2023-02-14T14:35:21.005Z,43.26
2023-02-14T14:38:26.108Z,43.72
2023-02-14T14:41:32.909Z,43.74
2023-02-14T14:44:37.745Z,43.88
2023-02-14T14:47:45.120Z,44.70
2023-02-14T14:50:50.678Z,44.55
2023-02-14T14:53:58.375Z,44.99
2023-02-14T14:57:04.972Z,45.35
2023-02-14T15:00:27.406Z,45.62
2023-02-14T15:03:32.253Z,46.71
2023-02-14T15:06:36.014Z,46.67
2023-02-14T15:09:42.773Z,46.87
2023-02-14T15:13:06.475Z,47.56
2023-02-14T15:16:10.349Z,47.52
2023-02-14T15:19:21.158Z,48.52
2023-02-14T15:22:29.756Z,48.80
2023-02-14T15:25:35.678Z,49.28
2023-02-14T15:28:40.877Z,48.95
2023-02-14T15:31:44.785Z,49.47
2023-02-14T15:34:50.115Z,49.78
2023-02-14T15:37:54.489Z,49.96
2023-02-14T15:40:59.670Z,49.86
2023-02-14T15:44:05.319Z,50.13
2023-02-14T15:47:09.189Z,50.22
2023-02-14T15:50:16.972Z,49.98
2023-02-14T15:53:36.204Z,50.14
2023-02-14T15:56:46.939Z,50.00
2023-02-14T15:59:52.465Z,50.50
2023-02-14T16:03:00.774Z,50.46
2023-02-14T16:06:06.459Z,50.68
2023-02-14T16:09:26.641Z,50.87
2023-02-14T16:12:35.823Z,51.54
2023-02-14T16:15:46.148Z,51.74
2023-02-14T16:18:53.296Z,51.74
2023-02-14T16:21:57.832Z,51.82
2023-02-14T16:25:02.284Z,51.75
2023-02-14T16:28:06.323Z,52.89
2023-02-14T16:31:17.947Z,52.52
2023-02-14T16:34:22.106Z,52.62
2023-02-14T16:37:29.685Z,52.69
2023-02-14T16:40:33.820Z,52.71
2023-02-14T16:43:38.449Z,52.24
2023-02-14T16:46:44.176Z,52.37
2023-02-14T16:49:48.015Z,52.86
2023-02-14T16:52:53.830Z,52.18
2023-02-14T16:55:59.125Z,52.77
2023-02-14T16:59:02.905Z,52.45
2023-02-14T17:02:08.298Z,52.10
2023-02-14T17:05:12.228Z,52.73
2023-02-14T17:08:17.086Z,53.29
2023-02-14T17:11:21.579Z,53.47
2023-02-14T17:14:29.937Z,53.51
2023-02-14T17:17:35.980Z,53.83
2023-02-14T17:20:40.190Z,53.16
2023-02-14T17:23:43.941Z,53.75
2023-02-14T17:26:47.778Z,53.18
2023-02-14T17:29:52.504Z,52.75
2023-02-14T17:32:57.910Z,53.27
2023-02-14T17:36:06.943Z,53.40
2023-02-14T17:39:10.628Z,53.40
2023-02-14T17:42:14.515Z,53.70
2023-02-14T17:45:18.451Z,53.66
2023-02-14T17:48:24.149Z,52.88
2023-02-14T17:51:27.898Z,52.57
2023-02-14T17:54:31.599Z,53.05
2023-02-14T17:57:35.842Z,53.29
2023-02-14T18:00:39.655Z,53.25
2023-02-14T18:03:45.213Z,52.92
2023-02-14T18:06:48.853Z,53.37
2023-02-14T18:09:52.591Z,53.54
2023-02-14T18:12:56.354Z,53.41
2023-02-14T18:16:03.509Z,53.65
2023-02-14T18:19:10.253Z,53.06
2023-02-14T18:22:14.262Z,53.25
2023-02-14T18:25:18.192Z,53.78
2023-02-14T18:28:23.207Z,53.86
2023-02-14T18:31:27.877Z,54.11
2023-02-14T18:34:33.172Z,54.27
2023-02-14T18:37:36.917Z,54.26
2023-02-14T18:40:41.486Z,54.39
2023-02-14T18:43:45.492Z,54.46
2023-02-14T18:46:49.265Z,54.28
2023-02-14T18:49:54.520Z,54.83
2023-02-14T18:52:58.364Z,54.62
2023-02-14T18:56:05.636Z,54.66
2023-02-14T18:59:11.666Z,54.19
2023-02-14T19:02:15.639Z,54.50
2023-02-14T19:05:20.977Z,54.63
2023-02-14T19:08:24.723Z,54.01
2023-02-14T19:11:31.761Z,53.89
2023-02-14T19:14:35.820Z,53.84
2023-02-14T19:17:40.030Z,53.80
2023-02-14T19:20:45.341Z,53.68
2023-02-14T19:23:49.577Z,53.89
2023-02-14T19:26:54.773Z,53.63
2023-02-14T19:29:58.475Z,53.94
2023-02-14T19:33:02.294Z,53.64
2023-02-14T19:36:09.522Z,53.70
2023-02-14T19:39:14.204Z,53.75
2023-02-14T19:42:18.012Z,54.27
2023-02-14T19:45:22.161Z,53.87
2023-02-14T19:48:26.041Z,53.89
2023-02-14T19:51:34.136Z,53.90
2023-02-14T19:54:39.859Z,53.32
2023-02-14T19:57:43.842Z,53.70
2023-02-14T20:00:47.608Z,53.58
2023-02-14T20:03:51.442Z,53.64
2023-02-14T20:06:57.486Z,53.59
2023-02-14T20:10:01.282Z,53.86
2023-02-14T20:13:05.034Z,54.16
2023-02-14T20:16:12.310Z,53.87
2023-02-14T20:19:18.509Z,53.38
2023-02-14T20:22:23.898Z,53.64
2023-02-14T20:25:27.628Z,54.07
2023-02-14T20:28:31.461Z,53.56
2023-02-14T20:31:36.308Z,53.17
2023-02-14T20:34:40.449Z,52.80
2023-02-14T20:37:45.778Z,53.04
2023-02-14T20:40:49.507Z,53.81
2023-02-14T20:43:53.677Z,53.72
2023-02-14T20:46:59.747Z,53.57
2023-02-14T20:50:03.749Z,53.71
2023-02-14T20:53:09.058Z,54.00
2023-02-14T20:56:14.618Z,53.94
2023-02-14T20:59:24.557Z,53.45
2023-02-14T21:02:28.408Z,53.79
2023-02-14T21:05:32.242Z,53.78
2023-02-14T21:08:38.804Z,53.61
2023-02-14T21:11:42.717Z,53.72
2023-02-14T21:14:46.475Z,53.68
2023-02-14T21:17:50.264Z,53.52
2023-02-14T21:20:54.781Z,53.65
2023-02-14T21:24:01.276Z,53.76
2023-02-14T21:27:05.192Z,53.96
2023-02-14T21:30:10.149Z,53.69
2023-02-14T21:33:15.740Z,53.76
2023-02-14T21:36:20.829Z,53.86
2023-02-14T21:39:28.121Z,53.55
2023-02-14T21:42:31.984Z,53.41
2023-02-14T21:45:52.892Z,53.55
2023-02-14T21:49:15.494Z,53.52
2023-02-14T21:52:19.387Z,54.15
2023-02-14T21:55:24.586Z,54.28
2023-02-14T21:58:28.402Z,54.44
2023-02-14T22:01:33.913Z,54.42
2023-02-14T22:04:38.322Z,54.43
2023-02-14T22:07:42.112Z,54.67
2023-02-14T22:10:47.347Z,54.01
2023-02-14T22:13:51.657Z,54.12
2023-02-14T22:16:55.448Z,53.97
2023-02-14T22:19:59.222Z,54.16
2023-02-14T22:23:03.101Z,53.62
2023-02-14T22:26:16.686Z,53.72
2023-02-14T22:29:20.693Z,53.72
2023-02-14T22:32:24.616Z,54.17
2023-02-14T22:35:28.440Z,53.58
2023-02-14T22:38:32.239Z,53.94
2023-02-14T22:41:38.108Z,54.94
2023-02-14T22:44:42.041Z,54.33
2023-02-14T22:47:45.898Z,55.00
2023-02-14T22:50:49.677Z,54.99
2023-02-14T22:53:56.217Z,54.52
2023-02-14T22:57:01.451Z,54.61
2023-02-14T23:00:11.923Z,53.80
2023-02-14T23:03:16.027Z,53.45
2023-02-14T23:06:19.817Z,53.49
2023-02-14T23:09:24.328Z,53.28
2023-02-14T23:12:47.107Z,54.22
2023-02-14T23:16:11.897Z,53.92
2023-02-14T23:19:35.040Z,54.56
2023-02-14T23:22:41.098Z,53.99
2023-02-14T23:25:44.906Z,54.38
2023-02-14T23:28:50.176Z,54.46
2023-02-14T23:31:54.120Z,55.22
2023-02-14T23:34:59.306Z,55.24
2023-02-14T23:38:03.173Z,55.87
2023-02-14T23:41:28.257Z,55.44
2023-02-14T23:44:33.694Z,55.16
2023-02-14T23:47:37.461Z,56.14
2023-02-14T23:50:41.335Z,55.32
2023-02-14T23:53:45.108Z,55.84
2023-02-14T23:56:48.992Z,56.46
2023-02-14T23:59:54.381Z,56.69
